Time;durP1;ratioP1;P1;durP2;ratioP2;P2;SDS_P1;SDS_P2;PMS_P1;PMS_P2;Temp;Humidity;BMP_temperature;BMP_pressure;BME280_temperature;BME280_humidity;BME280_pressure;Samples;Min_cycle;Max_cycle;Signal;HPM_P1;HPM_P2
2023/06/19 00:03:22;;;;;;;;;;;;;;;20.69;71.27;100694.97;12864102;23;19966;-65
2023/06/19 00:08:24;;;;;;;;;;;;;;;21.07;69.71;100687.53;12865334;23;19924;-65
2023/06/19 00:13:26;;;;;;;;;;;;;;;21.01;70.80;100696.13;12865325;23;20341;-65
2023/06/19 00:18:29;;;;;;;;;;;;;;;21.10;70.20;100702.38;12865216;23;19984;-65
2023/06/19 00:23:31;;;;;;;;;;;;;;;21.75;64.78;100708.94;12865139;23;19927;-66
2023/06/19 00:28:33;;;;;;;;;;;;;;;21.64;67.36;100729.56;12864947;23;19920;-65
2023/06/19 00:33:35;;;;;;;;;;;;;;;21.69;66.11;100719.25;12864942;23;19983;-67
2023/06/19 00:38:38;;;;;;;;;;;;;;;22.00;64.23;100726.63;12864849;23;19926;-66
2023/06/19 00:43:40;;;;;;;;;;;;;;;21.93;64.16;100735.47;12864674;23;19943;-65
2023/06/19 00:48:42;;;;;;;;;;;;;;;21.99;64.97;100740.97;12864538;23;19995;-66
2023/06/19 00:53:45;;;;;;;;;;;;;;;22.07;64.74;100748.13;12864465;23;19953;-65
2023/06/19 00:58:47;;;;;;;;;;;;;;;22.16;64.49;100762.31;12863586;23;19947;-65
2023/06/19 01:03:49;;;;;;;;;;;;;;;22.21;64.54;100766.16;12863500;23;20249;-65
2023/06/19 01:09:02;;;;;;;;;;;;;;;22.31;64.40;100767.84;12864026;23;19920;-65
2023/06/19 01:14:25;;;;;;;;;;;;;;;22.26;64.99;100765.66;12863766;23;19924;-65
2023/06/19 01:19:28;;;;;;;;;;;;;;;22.34;64.44;100770.19;12861575;23;19978;-65
2023/06/19 01:24:30;;;;;;;;;;;;;;;22.29;64.09;100770.66;12862974;23;20393;-65
2023/06/19 01:29:32;;;;;;;;;;;;;;;22.16;66.16;100776.47;12862946;23;19920;-65
2023/06/19 01:34:34;;;;;;;;;;;;;;;22.13;65.84;100774.13;12862981;23;19947;-65
2023/06/19 01:39:39;;;;;;;;;;;;;;;21.84;67.03;100771.91;12837369;23;19920;-66
2023/06/19 01:44:41;;;;;;;;;;;;;;;22.02;66.08;100771.78;12836491;23;20381;-65
2023/06/19 01:49:43;;;;;;;;;;;;;;;21.81;66.39;100766.91;12863122;23;19999;-65
2023/06/19 01:54:46;;;;;;;;;;;;;;;21.83;66.69;100767.56;12836339;23;19920;-65
2023/06/19 01:59:48;;;;;;;;;;;;;;;21.66;65.66;100772.03;12862420;23;19983;-65
2023/06/19 02:04:50;;;;;;;;;;;;;;;21.44;67.91;100779.56;12862371;23;19920;-65
2023/06/19 02:09:52;;;;;;;;;;;;;;;21.48;68.11;100788.09;12863121;23;19920;-65
2023/06/19 02:14:54;;;;;;;;;;;;;;;21.41;69.60;100805.69;12862146;23;20324;-65
2023/06/19 02:19:57;;;;;;;;;;;;;;;21.09;70.11;100812.47;12863142;23;19927;-65
2023/06/19 02:24:59;;;;;;;;;;;;;;;21.17;69.66;100811.72;12862321;23;20241;-65
2023/06/19 02:30:01;;;;;;;;;;;;;;;21.07;68.92;100820.63;12865308;23;20334;-65
2023/06/19 02:35:09;;;;;;;;;;;;;;;20.94;70.94;100825.50;12839988;23;19986;-65
2023/06/19 02:40:11;;;;;;;;;;;;;;;20.68;73.47;100836.09;12867061;23;19983;-65
2023/06/19 02:45:15;;;;;;;;;;;;;;;20.78;72.80;100844.84;12866836;23;19931;-65
2023/06/19 02:50:17;;;;;;;;;;;;;;;20.65;74.44;100844.41;12866812;23;19955;-64
2023/06/19 02:55:19;;;;;;;;;;;;;;;20.30;76.74;100848.69;12865822;23;19966;-66
2023/06/19 03:00:21;;;;;;;;;;;;;;;20.16;79.52;100856.19;12866395;23;20001;-64
2023/06/19 03:05:26;;;;;;;;;;;;;;;20.33;78.96;100859.03;12866641;23;19924;-64
2023/06/19 03:10:29;;;;;;;;;;;;;;;20.25;77.62;100859.78;12840458;23;19920;-65
2023/06/19 03:15:31;;;;;;;;;;;;;;;20.09;79.33;100873.72;12840057;23;20004;-65
2023/06/19 03:20:33;;;;;;;;;;;;;;;19.90;82.68;100869.31;12865366;23;20421;-65
2023/06/19 03:25:35;;;;;;;;;;;;;;;20.10;80.20;100863.91;12866012;23;19926;-64
2023/06/19 03:30:38;;;;;;;;;;;;;;;20.16;80.01;100866.00;12866156;23;20000;-64
2023/06/19 03:35:40;;;;;;;;;;;;;;;20.09;80.73;100862.25;12865288;23;19995;-64
2023/06/19 03:40:43;;;;;;;;;;;;;;;20.30;76.80;100868.13;12865711;23;19927;-64
2023/06/19 03:45:45;;;;;;;;;;;;;;;20.38;75.72;100870.06;12865551;23;19990;-64
2023/06/19 03:50:47;;;;;;;;;;;;;;;20.22;80.41;100874.22;12865689;23;19926;-64
2023/06/19 03:55:49;;;;;;;;;;;;;;;20.20;80.28;100888.63;12865102;23;19998;-64
2023/06/19 04:00:51;;;;;;;;;;;;;;;20.13;80.94;100898.19;12864663;23;19974;-64
2023/06/19 04:05:54;;;;;;;;;;;;;;;20.06;84.27;100899.75;12865299;23;19947;-65
2023/06/19 04:10:56;;;;;;;;;;;;;;;20.15;82.95;100898.88;12864166;23;20003;-64
2023/06/19 04:15:58;;;;;;;;;;;;;;;20.13;83.02;100917.63;12865325;23;19920;-64
2023/06/19 04:21:00;;;;;;;;;;;;;;;19.88;87.72;100921.78;12864227;23;20231;-64
2023/06/19 04:26:03;;;;;;;;;;;;;;;20.22;81.85;100922.06;12865163;23;19920;-65
2023/06/19 04:31:05;;;;;;;;;;;;;;;20.42;82.87;100928.09;12863443;23;20230;-64
2023/06/19 04:36:09;;;;;;;;;;;;;;;20.18;84.42;100927.81;12864866;23;19983;-64
2023/06/19 04:41:12;;;;;;;;;;;;;;;20.56;82.95;100925.91;12863331;23;19951;-64
2023/06/19 04:46:19;;;;;;;;;;;;;;;20.68;78.86;100934.53;12863850;23;20302;-64
2023/06/19 04:51:21;;;;;;;;;;;;;;;20.35;84.16;100945.63;12864365;23;19978;-64
2023/06/19 04:56:23;;;;;;;;;;;;;;;20.38;83.59;100945.31;12863513;23;19923;-64
2023/06/19 05:01:30;;;;;;;;;;;;;;;20.45;84.07;100953.56;12864338;23;19950;-64
2023/06/19 05:06:32;;;;;;;;;;;;;;;20.37;85.62;100948.97;12863626;23;20308;-64
2023/06/19 05:11:34;;;;;;;;;;;;;;;20.47;81.49;100958.72;12863786;23;19999;-64
2023/06/19 05:16:36;;;;;;;;;;;;;;;20.52;84.42;100964.44;12862618;23;19920;-64
2023/06/19 05:21:39;;;;;;;;;;;;;;;20.55;85.23;100966.78;12863267;23;20315;-64
2023/06/19 05:26:41;;;;;;;;;;;;;;;20.54;86.08;100968.63;12863163;23;19943;-64
2023/06/19 05:31:43;;;;;;;;;;;;;;;20.56;88.62;100971.09;12863779;23;19998;-64
2023/06/19 05:36:46;;;;;;;;;;;;;;;20.64;89.35;100971.25;12863698;23;19991;-64
2023/06/19 05:41:49;;;;;;;;;;;;;;;21.13;78.36;100960.22;12863660;23;19991;-64
2023/06/19 05:46:51;;;;;;;;;;;;;;;20.49;85.49;100975.34;12862805;23;19943;-65
2023/06/19 05:51:53;;;;;;;;;;;;;;;21.17;80.41;100974.94;12863439;23;19951;-65
2023/06/19 05:56:55;;;;;;;;;;;;;;;20.91;87.07;100990.81;12862647;23;20356;-64
2023/06/19 06:01:58;;;;;;;;;;;;;;;20.93;82.55;100991.50;12862638;23;19942;-66
2023/06/19 06:07:00;;;;;;;;;;;;;;;21.02;80.67;100995.91;12863239;23;19991;-65
2023/06/19 06:12:03;;;;;;;;;;;;;;;20.87;85.50;101002.75;12862512;23;19998;-65
2023/06/19 06:17:05;;;;;;;;;;;;;;;21.06;84.21;101004.44;12863194;23;19990;-65
2023/06/19 06:22:08;;;;;;;;;;;;;;;20.81;87.61;101009.50;12862377;23;20337;-65
2023/06/19 06:27:11;;;;;;;;;;;;;;;21.04;87.70;101023.22;12863018;23;19943;-65
2023/06/19 06:32:13;;;;;;;;;;;;;;;21.37;84.03;101020.88;12862198;23;19919;-65
2023/06/19 06:37:22;;;;;;;;;;;;;;;20.54;90.17;101029.81;12862188;23;20327;-64
2023/06/19 06:42:25;;;;;;;;;;;;;;;21.41;86.03;101032.88;12862954;23;19991;-64
2023/06/19 06:47:27;;;;;;;;;;;;;;;20.91;86.35;101036.91;12862032;23;20219;-65
2023/06/19 06:52:30;;;;;;;;;;;;;;;21.31;87.25;101045.44;12862027;23;19998;-65
2023/06/19 06:57:32;;;;;;;;;;;;;;;21.54;84.91;101047.69;12862108;23;19920;-64
2023/06/19 07:02:34;;;;;;;;;;;;;;;21.81;78.16;101052.06;12835783;23;19919;-65
2023/06/19 07:07:37;;;;;;;;;;;;;;;21.82;78.55;101054.56;12861979;23;20313;-65
2023/06/19 07:12:48;;;;;;;;;;;;;;;21.65;78.46;101077.59;12862312;23;20312;-65
2023/06/19 07:17:51;;;;;;;;;;;;;;;21.69;78.45;101076.28;12866429;23;19947;-65
2023/06/19 07:22:53;;;;;;;;;;;;;;;21.52;80.67;101083.28;12866322;23;19926;-65
2023/06/19 07:27:55;;;;;;;;;;;;;;;22.06;75.88;101077.88;12866187;23;19943;-65
2023/06/19 07:32:57;;;;;;;;;;;;;;;22.76;70.05;101084.97;12865338;23;19975;-65
2023/06/19 07:38:00;;;;;;;;;;;;;;;23.12;68.88;101070.56;12865214;23;19920;-65
2023/06/19 07:43:02;;;;;;;;;;;;;;;23.60;66.82;101079.63;12865026;23;19987;-65
2023/06/19 07:48:04;;;;;;;;;;;;;;;23.42;65.77;101093.16;12864828;23;20030;-65
2023/06/19 07:53:06;;;;;;;;;;;;;;;23.96;63.96;101102.56;12865721;23;19927;-65
2023/06/19 07:58:09;;;;;;;;;;;;;;;23.87;62.90;101093.69;12864664;23;19919;-65
2023/06/19 08:03:11;;;;;;;;;;;;;;;23.48;66.38;101119.19;12865544;23;19983;-65
2023/06/19 08:08:13;;;;;;;;;;;;;;;23.52;65.04;101119.72;12865306;23;19920;-65
2023/06/19 08:13:16;;;;;;;;;;;;;;;23.12;67.95;101122.13;12864943;22;19926;-62
2023/06/19 08:18:18;;;;;;;;;;;;;;;23.64;66.92;101115.72;12865320;23;19944;-62
2023/06/19 08:23:20;;;;;;;;;;;;;;;24.19;65.60;101116.06;12865128;23;19934;-61
2023/06/19 08:28:23;;;;;;;;;;;;;;;25.30;59.86;101122.38;12863850;23;20007;-61
2023/06/19 08:33:25;;;;;;;;;;;;;;;24.93;59.12;101126.56;12864971;23;19991;-62
2023/06/19 08:38:27;;;;;;;;;;;;;;;25.72;56.88;101121.91;12864919;23;19991;-61
2023/06/19 08:43:30;;;;;;;;;;;;;;;25.36;58.92;101133.22;12864715;23;19987;-61
2023/06/19 08:48:34;;;;;;;;;;;;;;;24.50;59.47;101140.25;12838182;23;19952;-62
2023/06/19 08:53:44;;;;;;;;;;;;;;;25.75;56.94;101126.91;12863776;23;20333;-61
2023/06/19 08:58:46;;;;;;;;;;;;;;;25.86;56.63;101125.66;12864292;23;19924;-62
2023/06/19 09:03:51;;;;;;;;;;;;;;;26.11;54.28;101123.59;12863269;23;20379;-61
2023/06/19 09:08:59;;;;;;;;;;;;;;;25.06;57.64;101139.41;12864156;23;19920;-62
2023/06/19 09:14:01;;;;;;;;;;;;;;;24.53;58.85;101134.56;12863263;23;19993;-62
2023/06/19 09:19:03;;;;;;;;;;;;;;;26.16;55.23;101141.00;12837745;23;19955;-62
2023/06/19 09:24:06;;;;;;;;;;;;;;;25.50;58.16;101149.53;12863972;23;19944;-62
2023/06/19 09:29:18;;;;;;;;;;;;;;;25.12;59.31;101163.63;12837506;23;19974;-61
2023/06/19 09:34:22;;;;;;;;;;;;;;;24.59;59.69;101175.88;12863834;23;19920;-61
2023/06/19 09:39:24;;;;;;;;;;;;;;;26.05;57.29;101171.78;12862819;23;19926;-62
2023/06/19 09:44:27;;;;;;;;;;;;;;;25.59;55.66;101176.13;12863621;23;19955;-62
2023/06/19 09:49:29;;;;;;;;;;;;;;;27.08;51.93;101180.94;12836323;23;19963;-62
2023/06/19 09:54:31;;;;;;;;;;;;;;;26.00;55.40;101177.69;12863519;23;19955;-62
2023/06/19 09:59:33;;;;;;;;;;;;;;;28.28;50.32;101170.63;12837088;23;20337;-62
2023/06/19 10:04:46;;;;;;;;;;;;;;;26.76;52.54;101184.88;12862555;23;20412;-62
2023/06/19 10:09:54;;;;;;;;;;;;;;;26.92;53.34;101181.19;12862336;23;20340;-62
2023/06/19 10:14:57;;;;;;;;;;;;;;;28.05;50.02;101176.22;12863043;23;19970;-62
2023/06/19 10:19:59;;;;;;;;;;;;;;;27.96;51.00;101176.34;12863063;23;19943;-62
2023/06/19 10:25:01;;;;;;;;;;;;;;;27.45;50.54;101179.13;12863152;23;19919;-62
2023/06/19 10:30:04;;;;;;;;;;;;;;;28.31;48.71;101171.03;12863005;23;19957;-62
2023/06/19 10:35:16;;;;;;;;;;;;;;;27.89;49.33;101179.97;12838900;23;19926;-62
2023/06/19 10:40:18;;;;;;;;;;;;;;;29.25;47.83;101182.34;12863055;23;19947;-62
2023/06/19 10:45:28;;;;;;;;;;;;;;;28.35;46.08;101177.69;12862997;23;19955;-62
2023/06/19 10:50:33;;;;;;;;;;;;;;;29.07;47.75;101172.13;12865737;23;19962;-62
2023/06/19 10:55:36;;;;;;;;;;;;;;;30.04;45.70;101164.63;12866896;23;19927;-62
2023/06/19 11:00:38;;;;;;;;;;;;;;;29.34;45.64;101177.63;12866019;23;20307;-62
2023/06/19 11:05:43;;;;;;;;;;;;;;;27.70;46.72;101174.22;12866736;23;19920;-62
2023/06/19 11:10:45;;;;;;;;;;;;;;;29.54;44.99;101178.50;12839637;23;19920;-62
2023/06/19 11:15:49;;;;;;;;;;;;;;;29.86;44.78;101176.06;12866529;23;19926;-62
2023/06/19 11:20:52;;;;;;;;;;;;;;;30.29;43.92;101162.13;12865597;23;20016;-62
2023/06/19 11:25:56;;;;;;;;;;;;;;;28.70;46.25;101175.03;12866356;23;19987;-62
2023/06/19 11:30:59;;;;;;;;;;;;;;;27.61;49.85;101168.13;12866034;23;19920;-62
2023/06/19 11:36:02;;;;;;;;;;;;;;;29.45;44.53;101169.78;12865220;23;19947;-62
2023/06/19 11:41:05;;;;;;;;;;;;;;;29.99;42.76;101159.03;12865201;23;20265;-62
2023/06/19 11:46:07;;;;;;;;;;;;;;;30.69;43.03;101161.25;12865142;23;20001;-62
2023/06/19 11:51:10;;;;;;;;;;;;;;;30.46;44.83;101156.31;12865722;23;20008;-62
2023/06/19 11:56:12;;;;;;;;;;;;;;;32.08;41.15;101157.97;12865027;23;19926;-62
2023/06/19 12:01:14;;;;;;;;;;;;;;;30.02;42.23;101147.81;12865719;23;19943;-62
2023/06/19 12:06:17;;;;;;;;;;;;;;;31.58;41.20;101145.25;12864790;23;20308;-62
2023/06/19 12:11:19;;;;;;;;;;;;;;;31.14;40.92;101145.06;12864350;23;20300;-62
2023/06/19 12:16:22;;;;;;;;;;;;;;;30.81;39.82;101132.50;12864290;23;19998;-63
2023/06/19 12:21:24;;;;;;;;;;;;;;;32.56;36.40;101149.97;12865053;23;19920;-63
2023/06/19 12:26:37;;;;;;;;;;;;;;;32.42;36.92;101134.13;12864408;23;20416;-62
2023/06/19 12:31:39;;;;;;;;;;;;;;;32.66;36.34;101138.63;12837906;23;20253;-62
2023/06/19 12:36:42;;;;;;;;;;;;;;;33.21;35.73;101143.19;12864123;23;19920;-62
2023/06/19 12:41:44;;;;;;;;;;;;;;;31.99;34.87;101146.56;12864838;23;19929;-62
2023/06/19 12:46:46;;;;;;;;;;;;;;;31.58;35.60;101154.19;12863706;23;19982;-62
2023/06/19 12:51:51;;;;;;;;;;;;;;;33.44;33.56;101158.72;12863798;23;20288;-62
2023/06/19 12:56:54;;;;;;;;;;;;;;;32.18;35.78;101167.25;12863681;23;20330;-63
2023/06/19 13:01:56;;;;;;;;;;;;;;;33.04;35.87;101158.41;12863624;23;19959;-63
2023/06/19 13:06:58;;;;;;;;;;;;;;;33.43;34.41;101145.38;12864353;23;19943;-62
2023/06/19 13:12:00;;;;;;;;;;;;;;;32.73;36.68;101142.13;12863233;23;19958;-63
2023/06/19 13:17:03;;;;;;;;;;;;;;;31.53;38.23;101145.09;12863928;23;19920;-63
2023/06/19 13:22:05;;;;;;;;;;;;;;;32.18;38.31;101151.00;12863915;23;19927;-62
2023/06/19 13:27:07;;;;;;;;;;;;;;;33.29;35.48;101139.31;12836762;23;20405;-63
2023/06/19 13:32:09;;;;;;;;;;;;;;;33.35;34.94;101153.84;12863731;23;19926;-63
2023/06/19 13:37:12;;;;;;;;;;;;;;;32.58;34.27;101147.03;12863993;23;19987;-63
2023/06/19 13:42:14;;;;;;;;;;;;;;;32.22;34.75;101130.53;12862898;23;19924;-63
2023/06/19 13:47:16;;;;;;;;;;;;;;;31.49;36.36;101139.25;12862813;23;20002;-62
2023/06/19 13:52:19;;;;;;;;;;;;;;;31.49;37.47;101136.53;12863510;23;19994;-63
2023/06/19 13:57:21;;;;;;;;;;;;;;;33.23;34.22;101140.22;12863396;23;19987;-63
2023/06/19 14:02:23;;;;;;;;;;;;;;;32.73;34.82;101136.69;12862219;23;19982;-63
2023/06/19 14:07:26;;;;;;;;;;;;;;;33.69;33.01;101131.41;12863413;23;19926;-63
2023/06/19 14:12:28;;;;;;;;;;;;;;;33.77;33.20;101140.25;12863225;23;19962;-63
2023/06/19 14:17:31;;;;;;;;;;;;;;;33.59;33.21;101133.84;12836195;23;19919;-63
2023/06/19 14:22:34;;;;;;;;;;;;;;;34.19;33.47;101127.38;12862246;23;19971;-63
2023/06/19 14:27:36;;;;;;;;;;;;;;;33.58;33.65;101140.31;12867469;23;19920;-63
2023/06/19 14:32:38;;;;;;;;;;;;;;;33.88;34.10;101132.13;12867395;23;19920;-62
2023/06/19 14:37:41;;;;;;;;;;;;;;;32.30;35.06;101131.31;12867365;23;19927;-62
2023/06/19 14:42:43;;;;;;;;;;;;;;;34.50;32.99;101119.94;12866416;23;19924;-63
2023/06/19 14:47:45;;;;;;;;;;;;;;;33.64;33.26;101123.13;12867084;23;19920;-63
2023/06/19 14:52:48;;;;;;;;;;;;;;;33.33;34.77;101122.31;12866139;23;19923;-63
2023/06/19 14:57:50;;;;;;;;;;;;;;;31.60;38.42;101122.31;12866567;23;19943;-63
2023/06/19 15:02:52;;;;;;;;;;;;;;;32.73;35.13;101114.16;12866801;23;19987;-63
2023/06/19 15:07:54;;;;;;;;;;;;;;;32.16;36.84;101122.47;12866743;23;19920;-63
2023/06/19 15:12:57;;;;;;;;;;;;;;;32.08;35.71;101120.91;12865430;23;19920;-63
2023/06/19 15:17:59;;;;;;;;;;;;;;;30.09;40.07;101120.81;12865599;23;19920;-63
2023/06/19 15:23:01;;;;;;;;;;;;;;;31.06;39.34;101121.00;12866390;23;19927;-63
2023/06/19 15:28:04;;;;;;;;;;;;;;;32.00;37.61;101111.16;12866287;23;19944;-63
2023/06/19 15:33:06;;;;;;;;;;;;;;;32.82;37.15;101120.09;12865101;23;19960;-63
2023/06/19 15:38:08;;;;;;;;;;;;;;;32.39;36.79;101117.22;12866151;23;19920;-64
2023/06/19 15:43:10;;;;;;;;;;;;;;;31.17;37.67;101111.34;12866054;23;19958;-63
2023/06/19 15:48:13;;;;;;;;;;;;;;;31.50;37.91;101111.13;12865913;23;19920;-63
2023/06/19 15:53:15;;;;;;;;;;;;;;;30.86;39.13;101099.44;12865029;23;20400;-63
2023/06/19 15:58:17;;;;;;;;;;;;;;;31.81;37.32;101098.66;12838679;23;20003;-63
2023/06/19 16:03:20;;;;;;;;;;;;;;;31.40;38.42;101095.38;12864928;23;19920;-63
2023/06/19 16:08:25;;;;;;;;;;;;;;;30.32;39.68;101093.38;12865553;23;19919;-62
2023/06/19 16:13:27;;;;;;;;;;;;;;;30.32;40.37;101096.06;12864453;23;20437;-62
2023/06/19 16:18:29;;;;;;;;;;;;;;;30.78;38.63;101089.69;12864563;23;20230;-63
2023/06/19 16:23:32;;;;;;;;;;;;;;;30.40;41.11;101087.78;12865294;23;19950;-63
2023/06/19 16:28:34;;;;;;;;;;;;;;;30.09;40.84;101089.25;12864216;23;20002;-62
2023/06/19 16:33:38;;;;;;;;;;;;;;;29.16;43.73;101090.00;12864114;23;20425;-62
2023/06/19 16:38:40;;;;;;;;;;;;;;;29.47;43.41;101099.41;12839023;23;19931;-62
2023/06/19 16:43:43;;;;;;;;;;;;;;;29.60;42.60;101104.00;12864078;23;20314;-63
2023/06/19 16:48:45;;;;;;;;;;;;;;;29.85;41.99;101100.72;12862026;23;19920;-63
2023/06/19 16:53:48;;;;;;;;;;;;;;;28.83;43.44;101106.06;12836588;23;20249;-62
2023/06/19 16:58:50;;;;;;;;;;;;;;;28.08;45.53;101098.63;12861685;23;19944;-62
2023/06/19 17:03:52;;;;;;;;;;;;;;;28.16;45.83;101106.53;12863122;23;19987;-62
2023/06/19 17:08:54;;;;;;;;;;;;;;;28.32;45.86;101112.63;12863886;23;19958;-62
2023/06/19 17:13:57;;;;;;;;;;;;;;;28.05;45.91;101107.06;12836897;23;19920;-63
2023/06/19 17:18:59;;;;;;;;;;;;;;;28.36;46.13;101108.50;12863340;23;20352;-63
2023/06/19 17:24:01;;;;;;;;;;;;;;;27.84;47.03;101115.16;12863231;23;20329;-62
2023/06/19 17:29:04;;;;;;;;;;;;;;;28.24;46.86;101099.34;12863940;23;19920;-62
2023/06/19 17:34:06;;;;;;;;;;;;;;;27.82;47.62;101103.75;12863156;23;19990;-62
2023/06/19 17:39:09;;;;;;;;;;;;;;;27.43;48.57;101101.34;12863795;23;19955;-62
2023/06/19 17:44:11;;;;;;;;;;;;;;;27.36;48.97;101103.16;12863502;23;19920;-62
2023/06/19 17:49:14;;;;;;;;;;;;;;;27.24;49.10;101092.03;12863366;23;19947;-62
2023/06/19 17:54:19;;;;;;;;;;;;;;;27.49;48.64;101090.84;12863007;23;20002;-62
2023/06/19 17:59:21;;;;;;;;;;;;;;;27.28;48.65;101089.78;12863385;23;19995;-62
2023/06/19 18:04:23;;;;;;;;;;;;;;;27.28;49.01;101095.16;12863703;23;19926;-62
2023/06/19 18:09:26;;;;;;;;;;;;;;;26.89;49.71;101101.78;12863487;23;19927;-62
2023/06/19 18:14:28;;;;;;;;;;;;;;;26.65;50.62;101103.75;12862328;23;19923;-67
2023/06/19 18:19:30;;;;;;;;;;;;;;;26.29;50.96;101098.25;12863225;23;19986;-66
2023/06/19 18:24:32;;;;;;;;;;;;;;;26.49;50.81;101096.72;12861119;23;19951;-67
2023/06/19 18:29:35;;;;;;;;;;;;;;;26.33;51.09;101104.94;12836693;23;19948;-66
2023/06/19 18:34:37;;;;;;;;;;;;;;;26.29;52.33;101109.00;12863085;23;19920;-66
2023/06/19 18:39:39;;;;;;;;;;;;;;;26.28;52.80;101097.44;12861882;23;20249;-66
2023/06/19 18:44:42;;;;;;;;;;;;;;;25.97;54.29;101097.56;12862711;23;19947;-66
2023/06/19 18:49:44;;;;;;;;;;;;;;;25.63;56.47;101101.53;12835694;23;20386;-67
2023/06/19 18:54:46;;;;;;;;;;;;;;;25.02;59.06;101112.13;12862253;23;19983;-66
2023/06/19 18:59:48;;;;;;;;;;;;;;;24.97;59.41;101109.16;12862611;23;19943;-66
2023/06/19 19:04:51;;;;;;;;;;;;;;;24.55;60.81;101113.81;12861673;23;19955;-66
2023/06/19 19:09:55;;;;;;;;;;;;;;;24.40;60.95;101118.19;12862923;23;20385;-63
2023/06/19 19:14:57;;;;;;;;;;;;;;;24.27;62.04;101116.03;12865822;23;20329;-63
2023/06/19 19:20:06;;;;;;;;;;;;;;;24.00;62.53;101114.56;12865162;23;19958;-63
2023/06/19 19:25:08;;;;;;;;;;;;;;;23.97;63.04;101112.22;12866153;23;19982;-63
2023/06/19 19:30:10;;;;;;;;;;;;;;;23.74;63.69;101126.25;12866261;23;19926;-63
2023/06/19 19:35:12;;;;;;;;;;;;;;;23.40;64.94;101131.72;12866198;23;19920;-63
2023/06/19 19:40:15;;;;;;;;;;;;;;;23.77;62.82;101127.75;12865769;23;19927;-63
2023/06/19 19:45:17;;;;;;;;;;;;;;;23.29;64.75;101133.69;12865599;23;19952;-63
2023/06/19 19:50:19;;;;;;;;;;;;;;;23.02;65.63;101144.63;12865788;23;19955;-62
2023/06/19 19:55:21;;;;;;;;;;;;;;;23.03;65.51;101148.94;12865774;23;19944;-63
2023/06/19 20:00:23;;;;;;;;;;;;;;;22.73;66.10;101149.31;12864552;23;20012;-63
2023/06/19 20:05:26;;;;;;;;;;;;;;;22.48;67.25;101150.16;12864155;23;19924;-63
2023/06/19 20:10:28;;;;;;;;;;;;;;;22.56;66.95;101147.53;12864016;23;20315;-63
2023/06/19 20:15:30;;;;;;;;;;;;;;;22.34;67.20;101157.78;12864788;23;19952;-63
2023/06/19 20:20:33;;;;;;;;;;;;;;;22.36;67.25;101154.94;12863973;23;20268;-63
2023/06/19 20:25:35;;;;;;;;;;;;;;;22.12;68.02;101152.91;12863852;23;20332;-65
2023/06/19 20:30:37;;;;;;;;;;;;;;;22.08;68.59;101155.88;12864947;23;19958;-66
2023/06/19 20:35:39;;;;;;;;;;;;;;;22.02;68.15;101151.19;12864999;23;19920;-66
2023/06/19 20:40:41;;;;;;;;;;;;;;;21.97;68.65;101152.63;12837392;23;20352;-66
2023/06/19 20:45:44;;;;;;;;;;;;;;;21.81;69.11;101156.00;12864258;23;19920;-66
2023/06/19 20:50:46;;;;;;;;;;;;;;;21.80;69.25;101164.97;12864501;23;19926;-66
2023/06/19 20:55:48;;;;;;;;;;;;;;;21.85;68.56;101170.66;12863806;23;20329;-66
2023/06/19 21:00:51;;;;;;;;;;;;;;;21.75;69.05;101181.41;12864010;23;20249;-66
2023/06/19 21:05:56;;;;;;;;;;;;;;;21.59;70.23;101190.09;12863186;23;20260;-70
2023/06/19 21:10:58;;;;;;;;;;;;;;;21.91;68.83;101180.72;12863701;23;20321;-70
2023/06/19 21:16:00;;;;;;;;;;;;;;;21.86;69.88;101193.69;12863717;23;19920;-70
2023/06/19 21:21:03;;;;;;;;;;;;;;;21.79;71.15;101193.44;12861786;23;19924;-70
2023/06/19 21:26:05;;;;;;;;;;;;;;;21.78;71.51;101191.75;12862470;23;20396;-70
2023/06/19 21:31:07;;;;;;;;;;;;;;;21.69;72.07;101192.69;12863483;23;20030;-70
2023/06/19 21:36:09;;;;;;;;;;;;;;;21.67;72.26;101202.63;12837448;23;19943;-70
2023/06/19 21:41:11;;;;;;;;;;;;;;;21.92;71.65;101195.72;12861737;23;19951;-70
2023/06/19 21:46:14;;;;;;;;;;;;;;;21.82;72.46;101195.81;12862038;23;19920;-70
2023/06/19 21:51:16;;;;;;;;;;;;;;;21.91;72.55;101194.06;12862202;23;20264;-70
2023/06/19 21:56:18;;;;;;;;;;;;;;;22.00;72.61;101182.47;12862744;23;20248;-70
2023/06/19 22:01:20;;;;;;;;;;;;;;;21.96;72.68;101170.44;12863110;23;19994;-70
2023/06/19 22:06:23;;;;;;;;;;;;;;;21.80;73.45;101170.28;12862940;23;19954;-70
2023/06/19 22:11:28;;;;;;;;;;;;;;;21.84;73.88;101161.84;12862790;23;19997;-70
2023/06/19 22:16:31;;;;;;;;;;;;;;;22.01;72.94;101160.16;12863267;23;19939;-70
2023/06/19 22:21:33;;;;;;;;;;;;;;;21.96;72.97;101154.44;12836689;23;19924;-70
2023/06/19 22:26:39;;;;;;;;;;;;;;;21.65;74.83;101154.00;12862079;23;19920;-70
2023/06/19 22:31:41;;;;;;;;;;;;;;;21.98;73.03;101160.47;12862229;23;20338;-70
2023/06/19 22:36:43;;;;;;;;;;;;;;;21.73;74.56;101159.41;12862610;23;19931;-70
2023/06/19 22:41:45;;;;;;;;;;;;;;;21.69;75.36;101166.88;12862836;23;19920;-70
2023/06/19 22:46:48;;;;;;;;;;;;;;;21.66;75.12;101156.50;12864921;23;20334;-70
2023/06/19 22:51:50;;;;;;;;;;;;;;;21.62;76.06;101154.28;12815118;23;19989;-70
2023/06/19 22:56:53;;;;;;;;;;;;;;;21.78;73.98;101153.63;12866527;23;19992;-70
2023/06/19 23:01:55;;;;;;;;;;;;;;;21.96;71.54;101151.78;12840440;23;20013;-70
2023/06/19 23:07:01;;;;;;;;;;;;;;;21.82;71.91;101158.50;12866334;23;19950;-70
2023/06/19 23:12:03;;;;;;;;;;;;;;;21.78;71.47;101159.78;12866565;23;19930;-70
2023/06/19 23:17:06;;;;;;;;;;;;;;;21.76;72.01;101155.63;12865386;23;19920;-70
2023/06/19 23:22:08;;;;;;;;;;;;;;;21.49;72.11;101160.84;12866475;23;19986;-70
2023/06/19 23:27:10;;;;;;;;;;;;;;;21.67;70.67;101155.53;12864940;23;19994;-70
2023/06/19 23:32:12;;;;;;;;;;;;;;;21.79;69.94;101156.13;12865699;23;19920;-70
2023/06/19 23:37:15;;;;;;;;;;;;;;;21.74;70.56;101155.75;12865612;23;19920;-70
2023/06/19 23:42:17;;;;;;;;;;;;;;;21.59;72.44;101152.78;12865932;23;19926;-70
2023/06/19 23:47:19;;;;;;;;;;;;;;;21.47;75.10;101152.16;12865428;23;19975;-70
2023/06/19 23:52:22;;;;;;;;;;;;;;;21.26;75.70;101147.06;12865869;23;19959;-70
2023/06/19 23:57:35;;;;;;;;;;;;;;;21.21;75.65;101156.50;12865075;23;19923;-70
